マカッサル の空港の天気 - METARとTAF

ハサヌディン国際空港 ( WAAA / UPG ) - インドネシア 南スラウェシ州マカッサル
飛行場実況気象(Metar)
観測時間07/15 18:30 WITA (07/15 10:30 UTC)
風向・風速西北西 2m/s
視程10km以上
天気現象
少しの雲 雲底高度 610m
気温28℃
湿度79%
気圧1008hPa
METARWAAA 151030Z 30004KT 9999 FEW020 28/24 Q1008 NOSIG
過去の天気等 Google飛行場航空写真 Wunderground天気予報

過去48時間のMETAR

飛行場予報(TAF)
発表時間: 7/15 13:00 WITA (7/15 05:00 UTC)
予報対象時間: 15日14時 WITA ~ 16日20時 WITA
風向・風速西 4m/s
視程10km以上
全天の4割程度の雲 雲底高度 610m
15日16時 WITA ~ 15日18時 WITA に徐々に
風向・風速東北東 5m/s
15日20時 WITA ~ 15日22時 WITA に徐々に
風向・風速南南西 2m/s
視程8000m
16日9時 WITA ~ 16日11時 WITA に徐々に
風向・風速東 5m/s
視程10km以上
TAF WAAA 150500Z 1506/1612 27008KT 9999 SCT020
BECMG 1508/1510 06010KT
BECMG 1512/1514 20003KT 8000
BECMG 1601/1603 08010KT 9999